Time;durP1;ratioP1;P1;durP2;ratioP2;P2;SDS_P1;SDS_P2;PMS_P1;PMS_P2;Temp;Humidity;BMP_temperature;BMP_pressure;BME280_temperature;BME280_humidity;BME280_pressure;Samples;Min_cycle;Max_cycle;Signal;HPM_P1;HPM_P2
2022/10/20 00:01:24;;;;;;;;;;;;;;;10.57;53.22;100298.69;5113496;28;19920;-63
2022/10/20 00:03:51;;;;;;;;;;;;;;;10.55;53.09;100296.13;5113367;28;20015;-62
2022/10/20 00:06:19;;;;;;;;;;;;;;;10.55;53.15;100290.84;5113863;28;20348;-61
2022/10/20 00:08:46;;;;;;;;;;;;;;;10.52;53.28;100285.72;5113193;28;19920;-62
2022/10/20 00:11:15;;;;;;;;;;;;;;;10.50;53.12;100288.44;5113152;28;20014;-61
2022/10/20 00:13:42;;;;;;;;;;;;;;;10.50;53.09;100287.59;5113154;28;19970;-62
2022/10/20 00:16:09;;;;;;;;;;;;;;;10.47;53.16;100274.59;5113223;28;20011;-63
2022/10/20 00:18:36;;;;;;;;;;;;;;;10.45;53.35;100282.53;5113156;28;19927;-62
2022/10/20 00:21:06;;;;;;;;;;;;;;;10.44;53.41;100288.75;5113378;28;19966;-61
2022/10/20 00:23:33;;;;;;;;;;;;;;;10.42;53.51;100274.75;5113047;28;19967;-64
2022/10/20 00:26:00;;;;;;;;;;;;;;;10.43;53.44;100268.56;5113138;28;19920;-59
2022/10/20 00:28:27;;;;;;;;;;;;;;;10.42;53.48;100265.09;5113067;28;19931;-63
2022/10/20 00:30:54;;;;;;;;;;;;;;;10.42;53.49;100259.84;5112982;28;20010;-63
2022/10/20 00:33:21;;;;;;;;;;;;;;;10.44;53.46;100262.44;5112938;27;19931;-62
2022/10/20 00:35:48;;;;;;;;;;;;;;;10.43;53.32;100255.41;5112931;28;19982;-62
2022/10/20 00:38:14;;;;;;;;;;;;;;;10.43;53.49;100258.03;5112779;28;19963;-61
2022/10/20 00:40:41;;;;;;;;;;;;;;;10.43;53.41;100252.78;5112623;28;19934;-61
2022/10/20 00:43:11;;;;;;;;;;;;;;;10.42;53.31;100238.78;5112975;28;19924;-62
2022/10/20 00:45:38;;;;;;;;;;;;;;;10.42;53.45;100232.66;5112464;28;19926;-60
2022/10/20 00:48:07;;;;;;;;;;;;;;;10.40;53.30;100227.47;5112479;28;20006;-62
2022/10/20 00:50:37;;;;;;;;;;;;;;;10.40;53.28;100230.09;5112497;28;19926;-58
2022/10/20 00:53:04;;;;;;;;;;;;;;;10.38;53.34;100226.69;5112510;28;20352;-63
2022/10/20 00:55:32;;;;;;;;;;;;;;;10.37;53.32;100216.25;5111479;28;19919;-61
2022/10/20 00:57:59;;;;;;;;;;;;;;;10.36;53.55;100212.75;5111508;28;19966;-58
2022/10/20 01:00:27;;;;;;;;;;;;;;;10.35;53.44;100210.22;5112262;28;19969;-61
2022/10/20 01:02:55;;;;;;;;;;;;;;;10.35;53.26;100215.47;5112453;28;19967;-61
2022/10/20 01:05:22;;;;;;;;;;;;;;;10.32;53.30;100208.56;5112296;28;20509;-61
2022/10/20 01:07:48;;;;;;;;;;;;;;;10.30;53.51;100202.53;5112312;28;19971;-61
2022/10/20 01:10:16;;;;;;;;;;;;;;;10.28;53.49;100207.03;5111844;28;20014;-61
2022/10/20 01:13:01;;;;;;;;;;;;;;;10.27;53.48;100203.53;5111176;28;20402;-62
2022/10/20 01:15:40;;;;;;;;;;;;;;;10.25;53.57;100200.09;5112243;28;19920;-62
2022/10/20 01:18:13;;;;;;;;;;;;;;;10.25;53.54;100207.16;5112008;28;19977;-62
2022/10/20 01:20:45;;;;;;;;;;;;;;;10.24;53.78;100198.41;5112066;28;20626;-61
2022/10/20 01:23:28;;;;;;;;;;;;;;;10.23;53.89;100199.34;5110961;28;20279;-61
2022/10/20 01:26:27;;;;;;;;;;;;;;;10.24;53.79;100198.41;5110858;28;19975;-62
2022/10/20 01:28:56;;;;;;;;;;;;;;;10.25;53.82;100200.09;5099368;28;19969;-62
2022/10/20 01:31:22;;;;;;;;;;;;;;;10.27;53.73;100197.41;5112028;28;19974;-62
2022/10/20 01:33:55;;;;;;;;;;;;;;;10.27;53.85;100179.84;5112199;28;19920;-61
2022/10/20 01:36:27;;;;;;;;;;;;;;;10.29;53.86;100177.97;5111979;28;19931;-64
2022/10/20 01:38:59;;;;;;;;;;;;;;;10.30;53.89;100173.59;5111779;28;19949;-61
2022/10/20 01:41:32;;;;;;;;;;;;;;;10.30;53.84;100166.56;5111914;28;20350;-61
2022/10/20 01:44:02;;;;;;;;;;;;;;;10.34;53.99;100153.22;5110586;28;19977;-61
2022/10/20 01:46:29;;;;;;;;;;;;;;;10.33;53.81;100146.28;5111951;28;19923;-62
2022/10/20 01:48:56;;;;;;;;;;;;;;;10.34;53.74;100145.34;5110723;28;19993;-62
2022/10/20 01:51:22;;;;;;;;;;;;;;;10.32;53.37;100140.13;5111731;28;20395;-64
2022/10/20 01:53:49;;;;;;;;;;;;;;;10.30;53.80;100134.13;5111704;28;19971;-63
2022/10/20 01:56:18;;;;;;;;;;;;;;;10.29;53.58;100143.78;5111735;28;19988;-63
2022/10/20 01:59:04;;;;;;;;;;;;;;;10.27;53.41;100139.53;5110338;28;19920;-59
2022/10/20 02:01:39;;;;;;;;;;;;;;;10.26;53.63;100138.69;5111735;28;20006;-61
2022/10/20 02:04:07;;;;;;;;;;;;;;;10.26;53.55;100122.91;5110557;28;19970;-62
2022/10/20 02:06:41;;;;;;;;;;;;;;;10.26;53.76;100128.16;5110600;28;19967;-62
2022/10/20 02:09:22;;;;;;;;;;;;;;;10.26;53.68;100129.94;5111575;28;19970;-61
2022/10/20 02:12:00;;;;;;;;;;;;;;;10.25;53.64;100126.44;5111755;28;20014;-63
2022/10/20 02:14:27;;;;;;;;;;;;;;;10.25;53.85;100131.69;5111732;28;20015;-61
2022/10/20 02:16:58;;;;;;;;;;;;;;;10.24;53.90;100132.63;5112205;28;20310;-61
2022/10/20 02:19:26;;;;;;;;;;;;;;;10.25;53.78;100126.44;5111597;28;19963;-61
2022/10/20 02:21:54;;;;;;;;;;;;;;;10.25;53.88;100123.81;5111505;28;19990;-61
2022/10/20 02:24:22;;;;;;;;;;;;;;;10.25;53.78;100121.19;5115083;28;19927;-58
2022/10/20 02:26:50;;;;;;;;;;;;;;;10.24;53.79;100124.75;5114275;28;19974;-61
2022/10/20 02:29:19;;;;;;;;;;;;;;;10.21;53.80;100119.63;5115268;28;19920;-61
2022/10/20 02:31:46;;;;;;;;;;;;;;;10.20;53.81;100117.09;5114648;28;19927;-63
2022/10/20 02:34:13;;;;;;;;;;;;;;;10.18;53.93;100125.06;5110435;28;19930;-62
2022/10/20 02:36:41;;;;;;;;;;;;;;;10.16;53.65;100121.63;5106639;28;20434;-63
2022/10/20 02:39:08;;;;;;;;;;;;;;;10.14;53.75;100120.88;5113676;28;19924;-64
2022/10/20 02:41:35;;;;;;;;;;;;;;;10.11;53.70;100113.13;5114046;28;19951;-62
2022/10/20 02:44:02;;;;;;;;;;;;;;;10.07;53.92;100112.44;5114123;28;19931;-64
2022/10/20 02:46:28;;;;;;;;;;;;;;;10.07;53.76;100115.06;5115395;28;19958;-62
2022/10/20 02:48:55;;;;;;;;;;;;;;;10.05;53.82;100103.75;5114650;28;19950;-61
2022/10/20 02:51:21;;;;;;;;;;;;;;;10.03;53.78;100095.94;5114926;28;19923;-60
2022/10/20 02:53:48;;;;;;;;;;;;;;;10.01;53.57;100081.16;5114830;28;20006;-61
2022/10/20 02:56:15;;;;;;;;;;;;;;;9.97;53.62;100072.59;5114980;28;19920;-61
2022/10/20 02:58:41;;;;;;;;;;;;;;;9.93;53.77;100063.16;5114847;28;19971;-61
2022/10/20 03:01:08;;;;;;;;;;;;;;;9.89;53.86;100062.44;5114661;28;19926;-63
2022/10/20 03:03:34;;;;;;;;;;;;;;;9.85;53.72;100065.28;5114784;28;19924;-63
2022/10/20 03:06:08;;;;;;;;;;;;;;;9.82;53.82;100060.19;5114592;28;19923;-61
2022/10/20 03:08:35;;;;;;;;;;;;;;;9.78;53.86;100049.84;5114259;28;19924;-60
2022/10/20 03:11:02;;;;;;;;;;;;;;;9.75;53.72;100044.72;5114498;28;19931;-61
2022/10/20 03:13:28;;;;;;;;;;;;;;;9.72;53.82;100044.84;5114526;28;19959;-61
2022/10/20 03:16:00;;;;;;;;;;;;;;;9.69;53.82;100031.88;5114606;28;19977;-61
2022/10/20 03:18:27;;;;;;;;;;;;;;;9.67;53.87;100022.34;5114457;28;20480;-63
2022/10/20 03:20:53;;;;;;;;;;;;;;;9.64;53.81;100023.34;5114327;28;19973;-63
2022/10/20 03:23:20;;;;;;;;;;;;;;;9.62;53.93;100022.59;5114131;28;19919;-61
2022/10/20 03:25:47;;;;;;;;;;;;;;;9.59;54.01;100018.34;5114281;28;19926;-64
2022/10/20 03:28:14;;;;;;;;;;;;;;;9.59;54.11;100014.84;5114060;28;20283;-61
2022/10/20 03:30:40;;;;;;;;;;;;;;;9.57;53.92;100028.06;5114342;28;20416;-60
2022/10/20 03:33:07;;;;;;;;;;;;;;;9.56;54.37;100012.34;5113790;28;20014;-64
2022/10/20 03:35:33;;;;;;;;;;;;;;;9.56;54.32;100007.09;5114043;28;19927;-62
2022/10/20 03:38:00;;;;;;;;;;;;;;;9.56;54.20;100013.22;5114168;28;19919;-61
2022/10/20 03:40:26;;;;;;;;;;;;;;;9.56;54.16;100012.34;5114019;28;19947;-62
2022/10/20 03:42:53;;;;;;;;;;;;;;;9.56;54.29;100009.72;5114008;28;19920;-64
2022/10/20 03:45:19;;;;;;;;;;;;;;;9.56;54.25;100001.84;5113828;28;19920;-62
2022/10/20 03:47:46;;;;;;;;;;;;;;;9.55;54.24;100005.41;5113829;28;19970;-62
2022/10/20 03:50:13;;;;;;;;;;;;;;;9.55;54.31;100002.78;5113423;28;19975;-62
2022/10/20 03:52:39;;;;;;;;;;;;;;;9.55;54.29;100005.41;5113766;28;19926;-62
2022/10/20 03:55:06;;;;;;;;;;;;;;;9.54;54.34;100001.09;5113658;28;19919;-60
2022/10/20 03:57:33;;;;;;;;;;;;;;;9.52;54.33;99996.75;5113833;28;20396;-61
2022/10/20 04:00:00;;;;;;;;;;;;;;;9.53;54.41;99981.81;5113396;27;19919;-62
2022/10/20 04:02:32;;;;;;;;;;;;;;;9.52;54.48;99988.88;5113568;28;19975;-61
2022/10/20 04:05:00;;;;;;;;;;;;;;;9.52;54.57;99977.50;5112122;28;20563;-61
2022/10/20 04:07:26;;;;;;;;;;;;;;;9.52;54.57;99982.75;5093043;28;19920;-61
2022/10/20 04:09:53;;;;;;;;;;;;;;;9.52;54.43;99985.38;5093036;28;19961;-62
2022/10/20 04:12:19;;;;;;;;;;;;;;;9.53;54.17;99979.19;5093114;28;20007;-61
2022/10/20 04:14:46;;;;;;;;;;;;;;;9.54;54.34;99977.44;5092836;28;20011;-63
2022/10/20 04:17:13;;;;;;;;;;;;;;;9.54;54.67;99965.16;5109562;27;19919;-61
2022/10/20 04:19:39;;;;;;;;;;;;;;;9.55;54.55;99963.34;5110348;27;19924;-63
2022/10/20 04:22:06;;;;;;;;;;;;;;;9.56;54.46;99959.81;5112850;28;19927;-63
2022/10/20 04:24:32;;;;;;;;;;;;;;;9.56;54.46;99946.66;5112909;28;20421;-61
2022/10/20 04:26:59;;;;;;;;;;;;;;;9.56;54.62;99955.41;5113041;27;19930;-62
2022/10/20 04:29:25;;;;;;;;;;;;;;;9.56;54.58;99947.53;5112887;28;19973;-62
2022/10/20 04:31:52;;;;;;;;;;;;;;;9.57;54.63;99945.75;5112911;28;20429;-64
2022/10/20 04:34:19;;;;;;;;;;;;;;;9.56;54.47;99930.88;5113279;28;19970;-62
2022/10/20 04:36:45;;;;;;;;;;;;;;;9.56;54.63;99931.75;5113277;28;19927;-61
2022/10/20 04:39:12;;;;;;;;;;;;;;;9.56;54.63;99930.88;5112891;28;20292;-61
2022/10/20 04:41:38;;;;;;;;;;;;;;;9.57;54.81;99922.09;5112779;28;19920;-64
2022/10/20 04:44:05;;;;;;;;;;;;;;;9.57;54.66;99919.47;5112520;28;19924;-63
2022/10/20 04:46:31;;;;;;;;;;;;;;;9.57;54.55;99912.41;5111900;28;19928;-61
2022/10/20 04:48:58;;;;;;;;;;;;;;;9.57;54.51;99903.72;5112583;28;19919;-62
2022/10/20 04:51:24;;;;;;;;;;;;;;;9.57;54.68;99898.44;5112785;28;19942;-63
2022/10/20 04:53:52;;;;;;;;;;;;;;;9.56;54.69;99897.59;5111556;28;19923;-60
2022/10/20 04:56:20;;;;;;;;;;;;;;;9.55;54.49;99890.66;5112692;28;19974;-61
2022/10/20 04:58:57;;;;;;;;;;;;;;;9.55;54.37;99897.66;5112678;28;20395;-64
2022/10/20 05:01:25;;;;;;;;;;;;;;;9.54;54.68;99895.97;5111612;28;19926;-61
2022/10/20 05:03:52;;;;;;;;;;;;;;;9.53;54.55;99892.47;5112563;28;19959;-61
2022/10/20 05:06:20;;;;;;;;;;;;;;;9.52;54.70;99889.03;5112284;28;19920;-60
2022/10/20 05:08:47;;;;;;;;;;;;;;;9.52;54.43;99890.78;5112271;28;19924;-62
2022/10/20 05:11:15;;;;;;;;;;;;;;;9.52;54.55;99881.13;5112723;28;19919;-62
2022/10/20 05:13:42;;;;;;;;;;;;;;;9.53;54.83;99887.22;5111134;28;20422;-61
2022/10/20 05:16:09;;;;;;;;;;;;;;;9.52;54.75;99886.41;5091479;28;19973;-61
2022/10/20 05:18:36;;;;;;;;;;;;;;;9.54;54.70;99882.84;5110344;28;19923;-61
2022/10/20 05:21:05;;;;;;;;;;;;;;;9.54;54.76;99882.84;5111177;28;19927;-62
2022/10/20 05:23:35;;;;;;;;;;;;;;;9.55;54.85;99868.75;5112321;28;20402;-60
2022/10/20 05:26:06;;;;;;;;;;;;;;;9.56;54.70;99868.69;5112159;28;19970;-61
2022/10/20 05:28:33;;;;;;;;;;;;;;;9.56;54.68;99852.91;5110682;28;19923;-61
2022/10/20 05:31:04;;;;;;;;;;;;;;;9.57;54.67;99849.34;5112142;28;19919;-61
2022/10/20 05:33:31;;;;;;;;;;;;;;;9.56;54.81;99847.66;5111838;28;19962;-60
2022/10/20 05:35:58;;;;;;;;;;;;;;;9.57;54.67;99845.91;5111302;28;19965;-60
2022/10/20 05:38:25;;;;;;;;;;;;;;;9.57;54.68;99843.25;5110462;28;19926;-60
2022/10/20 05:40:51;;;;;;;;;;;;;;;9.57;54.86;99840.63;5111380;28;19967;-60
2022/10/20 05:43:18;;;;;;;;;;;;;;;9.56;54.88;99844.16;5110896;28;19920;-63
2022/10/20 05:45:44;;;;;;;;;;;;;;;9.55;54.72;99843.34;5111514;28;19932;-61
2022/10/20 05:48:11;;;;;;;;;;;;;;;9.55;54.78;99839.84;5111958;28;19964;-61
2022/10/20 05:50:37;;;;;;;;;;;;;;;9.54;54.81;99831.13;5111847;28;19920;-60
2022/10/20 05:53:04;;;;;;;;;;;;;;;9.54;54.92;99835.53;5110553;28;20381;-61
2022/10/20 05:55:31;;;;;;;;;;;;;;;9.54;55.01;99832.91;5112170;28;20295;-60
2022/10/20 05:57:58;;;;;;;;;;;;;;;9.54;54.83;99825.88;5115064;28;19950;-67
2022/10/20 06:00:29;;;;;;;;;;;;;;;9.56;54.93;99820.53;5115870;28;20672;-62
2022/10/20 06:02:56;;;;;;;;;;;;;;;9.55;54.74;99814.44;5113753;28;20386;-63
2022/10/20 06:05:23;;;;;;;;;;;;;;;9.55;54.88;99811.81;5115181;28;19931;-61
2022/10/20 06:07:51;;;;;;;;;;;;;;;9.55;54.72;99806.56;5114802;28;19923;-60
2022/10/20 06:10:18;;;;;;;;;;;;;;;9.56;54.90;99799.50;5115592;28;19989;-61
2022/10/20 06:12:44;;;;;;;;;;;;;;;9.55;54.79;99792.53;5115974;28;19950;-63
2022/10/20 06:15:11;;;;;;;;;;;;;;;9.55;54.75;99792.53;5115394;28;19969;-61
2022/10/20 06:17:37;;;;;;;;;;;;;;;9.55;55.03;99785.53;5114678;28;19919;-60
2022/10/20 06:20:04;;;;;;;;;;;;;;;9.57;54.81;99782.81;5115167;28;19934;-60
2022/10/20 06:22:30;;;;;;;;;;;;;;;9.58;54.81;99780.13;5115605;28;19923;-63
2022/10/20 06:24:57;;;;;;;;;;;;;;;9.59;54.87;99789.69;5115785;28;19967;-61
2022/10/20 06:27:23;;;;;;;;;;;;;;;9.62;54.96;99788.69;5115535;28;19920;-60
2022/10/20 06:29:51;;;;;;;;;;;;;;;9.64;55.04;99789.44;5114948;28;19970;-61
2022/10/20 06:32:17;;;;;;;;;;;;;;;9.66;54.85;99777.06;5115084;28;19920;-60
2022/10/20 06:34:44;;;;;;;;;;;;;;;9.70;55.10;99783.00;5114320;28;19919;-60
2022/10/20 06:37:11;;;;;;;;;;;;;;;9.70;55.04;99778.63;5115079;28;20026;-60
2022/10/20 06:39:38;;;;;;;;;;;;;;;9.73;54.98;99778.47;5115130;28;19949;-61
2022/10/20 06:42:05;;;;;;;;;;;;;;;9.75;54.90;99778.34;5113836;28;19919;-60
2022/10/20 06:44:37;;;;;;;;;;;;;;;9.77;54.96;99774.72;5115430;28;20470;-61
2022/10/20 06:47:08;;;;;;;;;;;;;;;9.80;55.20;99768.47;5115037;28;20331;-60
2022/10/20 06:49:35;;;;;;;;;;;;;;;9.83;55.23;99777.97;5113838;28;20391;-62
2022/10/20 06:52:02;;;;;;;;;;;;;;;9.85;55.18;99776.09;5115007;28;19919;-61
2022/10/20 06:54:28;;;;;;;;;;;;;;;9.89;55.05;99775.84;5115027;28;19976;-62
2022/10/20 06:56:55;;;;;;;;;;;;;;;9.93;55.38;99776.53;5115035;28;19919;-61
2022/10/20 06:59:21;;;;;;;;;;;;;;;9.96;55.24;99773.75;5114572;28;19966;-59
2022/10/20 07:01:48;;;;;;;;;;;;;;;10.01;55.26;99787.47;5114722;28;20054;-61
2022/10/20 07:04:15;;;;;;;;;;;;;;;10.05;55.12;99788.16;5114742;28;19920;-61
2022/10/20 07:06:42;;;;;;;;;;;;;;;10.10;55.29;99780.03;5114630;28;19919;-62
2022/10/20 07:09:12;;;;;;;;;;;;;;;10.15;55.34;99785.88;5113726;28;20009;-62
2022/10/20 07:11:39;;;;;;;;;;;;;;;10.21;55.30;99780.25;5114667;28;19969;-61
2022/10/20 07:14:05;;;;;;;;;;;;;;;10.25;55.24;99773.06;5114576;28;19955;-62
2022/10/20 07:16:33;;;;;;;;;;;;;;;10.32;55.26;99778.84;5114470;28;19927;-61
2022/10/20 07:19:00;;;;;;;;;;;;;;;10.36;55.26;99770.66;5113219;28;19954;-58
2022/10/20 07:21:27;;;;;;;;;;;;;;;10.40;55.21;99769.56;5114565;28;20355;-60
2022/10/20 07:24:02;;;;;;;;;;;;;;;10.45;55.12;99766.72;5114668;28;19920;-60
2022/10/20 07:26:30;;;;;;;;;;;;;;;10.49;55.16;99765.63;5114277;28;19924;-59
2022/10/20 07:28:58;;;;;;;;;;;;;;;10.54;55.13;99781.13;5113893;28;19920;-65
2022/10/20 07:31:31;;;;;;;;;;;;;;;10.59;55.15;99772.97;5114649;28;20280;-61
2022/10/20 07:33:58;;;;;;;;;;;;;;;10.64;55.32;99768.28;5114052;28;20364;-60
2022/10/20 07:36:33;;;;;;;;;;;;;;;10.68;55.10;99764.56;5114318;28;20291;-63
2022/10/20 07:39:03;;;;;;;;;;;;;;;10.71;55.13;99761.75;5113945;28;19923;-60
2022/10/20 07:41:30;;;;;;;;;;;;;;;10.76;55.19;99764.97;5114053;28;19920;-60
2022/10/20 07:43:56;;;;;;;;;;;;;;;10.81;55.37;99770.81;5114095;28;19926;-59
2022/10/20 07:46:23;;;;;;;;;;;;;;;10.85;55.14;99770.63;5113880;28;20394;-62
2022/10/20 07:48:50;;;;;;;;;;;;;;;10.89;55.19;99780.06;5113731;28;19920;-61
2022/10/20 07:51:16;;;;;;;;;;;;;;;10.93;55.29;99786.84;5113885;28;20018;-60
2022/10/20 07:53:43;;;;;;;;;;;;;;;10.99;55.31;99788.28;5112804;28;19920;-62
2022/10/20 07:56:10;;;;;;;;;;;;;;;11.03;55.22;99772.19;5113599;28;19976;-60
2022/10/20 07:58:36;;;;;;;;;;;;;;;11.10;55.27;99777.94;5113650;28;19923;-62
2022/10/20 08:01:03;;;;;;;;;;;;;;;11.15;55.31;99777.69;5113626;28;19972;-61
2022/10/20 08:03:30;;;;;;;;;;;;;;;11.21;55.24;99777.31;5113621;28;20379;-60
2022/10/20 08:05:56;;;;;;;;;;;;;;;11.26;55.18;99762.09;5113532;28;20014;-61
2022/10/20 08:08:23;;;;;;;;;;;;;;;11.31;55.26;99767.94;5113221;28;19963;-64
2022/10/20 08:10:49;;;;;;;;;;;;;;;11.37;55.16;99765.88;5113654;28;19973;-60
2022/10/20 08:13:16;;;;;;;;;;;;;;;11.43;55.27;99762.84;5113680;28;19971;-61
2022/10/20 08:15:42;;;;;;;;;;;;;;;11.48;55.36;99758.16;5113446;28;20018;-61
2022/10/20 08:18:09;;;;;;;;;;;;;;;11.54;55.43;99760.41;5113117;28;19926;-62
2022/10/20 08:20:36;;;;;;;;;;;;;;;11.60;55.15;99752.13;5112138;28;19919;-60
2022/10/20 08:23:02;;;;;;;;;;;;;;;11.66;55.28;99744.78;5113282;28;19920;-61
2022/10/20 08:25:29;;;;;;;;;;;;;;;11.71;55.20;99742.72;5113454;28;19926;-60
2022/10/20 08:27:55;;;;;;;;;;;;;;;11.76;55.19;99743.28;5113020;27;19924;-63
2022/10/20 08:30:22;;;;;;;;;;;;;;;11.82;55.13;99742.03;5112856;28;19964;-60
2022/10/20 08:32:50;;;;;;;;;;;;;;;11.88;55.27;99730.28;5112958;28;19923;-63
2022/10/20 08:35:17;;;;;;;;;;;;;;;11.92;55.21;99735.22;5111732;28;19973;-60
2022/10/20 08:37:44;;;;;;;;;;;;;;;11.98;55.21;99734.00;5112955;28;19969;-63
2022/10/20 08:40:15;;;;;;;;;;;;;;;12.03;55.32;99736.38;5112539;28;19926;-61
2022/10/20 08:42:43;;;;;;;;;;;;;;;12.09;55.27;99739.50;5111978;28;20416;-61
2022/10/20 08:45:14;;;;;;;;;;;;;;;12.17;55.11;99740.78;5112780;28;19919;-60
2022/10/20 08:47:41;;;;;;;;;;;;;;;12.23;55.50;99735.94;5112891;28;19969;-60
2022/10/20 08:50:11;;;;;;;;;;;;;;;12.29;55.34;99726.78;5112432;28;19919;-60
2022/10/20 08:52:40;;;;;;;;;;;;;;;12.37;55.37;99723.66;5112886;28;19949;-62
2022/10/20 08:55:09;;;;;;;;;;;;;;;12.45;55.48;99734.56;5111476;28;19919;-61
2022/10/20 08:57:35;;;;;;;;;;;;;;;12.53;55.33;99726.16;5112416;28;20428;-60
2022/10/20 09:00:22;;;;;;;;;;;;;;;12.62;55.34;99719.41;5112264;28;19939;-61
2022/10/20 09:02:49;;;;;;;;;;;;;;;12.70;55.36;99718.88;5112600;28;19954;-59
2022/10/20 09:05:19;;;;;;;;;;;;;;;12.77;55.28;99704.31;5111040;28;19965;-60
2022/10/20 09:07:50;;;;;;;;;;;;;;;12.85;55.34;99714.38;5112590;28;19920;-60
2022/10/20 09:10:32;;;;;;;;;;;;;;;12.92;55.33;99715.66;5111137;28;20014;-62
2022/10/20 09:12:59;;;;;;;;;;;;;;;13.00;55.26;99707.19;5111589;28;19919;-60
2022/10/20 09:15:27;;;;;;;;;;;;;;;13.07;55.37;99708.47;5112247;28;20015;-61
2022/10/20 09:18:02;;;;;;;;;;;;;;;13.13;55.17;99702.75;5112442;28;19920;-60
2022/10/20 09:20:37;;;;;;;;;;;;;;;13.21;55.27;99696.13;5112150;28;19920;-61
2022/10/20 09:23:03;;;;;;;;;;;;;;;13.27;55.31;99685.13;5110916;28;19919;-60
2022/10/20 09:25:51;;;;;;;;;;;;;;;13.34;55.16;99680.25;5112230;28;20015;-58
2022/10/20 09:28:22;;;;;;;;;;;;;;;13.38;55.22;99679.09;5110697;28;20368;-58
2022/10/20 09:30:49;;;;;;;;;;;;;;;13.41;55.14;99671.78;5110820;28;20500;-59
2022/10/20 09:33:20;;;;;;;;;;;;;;;13.48;55.13;99674.00;5111600;28;20432;-62
2022/10/20 09:35:47;;;;;;;;;;;;;;;13.52;55.00;99667.56;5110914;28;19923;-61
2022/10/20 09:38:28;;;;;;;;;;;;;;;13.58;55.08;99671.56;5110609;28;19962;-60
2022/10/20 09:40:57;;;;;;;;;;;;;;;13.65;55.15;99667.53;5111910;28;19981;-60
2022/10/20 09:43:24;;;;;;;;;;;;;;;13.74;55.25;99673.97;5112040;28;19920;-61
2022/10/20 09:45:57;;;;;;;;;;;;;;;13.84;55.34;99671.50;5111872;28;19923;-63
2022/10/20 09:48:26;;;;;;;;;;;;;;;13.94;55.43;99668.06;5111802;28;20346;-61
2022/10/20 09:50:54;;;;;;;;;;;;;;;14.04;55.59;99670.03;5111763;28;19949;-63
2022/10/20 09:53:27;;;;;;;;;;;;;;;14.16;55.49;99666.50;5110957;28;20403;-63
2022/10/20 09:55:54;;;;;;;;;;;;;;;14.27;55.47;99659.56;5110574;28;19985;-63
2022/10/20 09:58:25;;;;;;;;;;;;;;;14.37;55.46;99663.22;5110443;28;19919;-60
2022/10/20 10:00:59;;;;;;;;;;;;;;;14.49;55.45;99665.91;5111798;28;19919;-61
2022/10/20 10:03:26;;;;;;;;;;;;;;;14.58;55.42;99660.75;5111779;28;19971;-63
2022/10/20 10:05:54;;;;;;;;;;;;;;;14.69;55.38;99661.78;5111766;28;19973;-59
2022/10/20 10:08:21;;;;;;;;;;;;;;;14.79;55.41;99653.97;5111685;28;19958;-62
2022/10/20 10:11:00;;;;;;;;;;;;;;;14.88;55.34;99652.44;5111969;28;19920;-63
2022/10/20 10:13:29;;;;;;;;;;;;;;;14.97;55.20;99643.78;5111746;28;20014;-62
2022/10/20 10:16:08;;;;;;;;;;;;;;;15.04;55.20;99638.84;5111868;28;19920;-61
2022/10/20 10:18:36;;;;;;;;;;;;;;;15.14;55.09;99636.31;5110485;28;19971;-59
2022/10/20 10:21:10;;;;;;;;;;;;;;;15.19;55.10;99629.69;5111499;28;19965;-61
2022/10/20 10:23:54;;;;;;;;;;;;;;;15.25;55.07;99631.00;5111921;28;19920;-62
2022/10/20 10:26:39;;;;;;;;;;;;;;;15.31;54.99;99622.56;5111895;28;19927;-61
2022/10/20 10:29:14;;;;;;;;;;;;;;;15.36;54.96;99607.13;5111334;28;19928;-60
2022/10/20 10:31:45;;;;;;;;;;;;;;;15.41;54.99;99601.47;5110315;28;19924;-61
2022/10/20 10:34:12;;;;;;;;;;;;;;;15.48;55.06;99617.75;5111613;28;19959;-60
2022/10/20 10:36:38;;;;;;;;;;;;;;;15.55;55.03;99604.81;5111781;28;19954;-62
2022/10/20 10:39:10;;;;;;;;;;;;;;;15.62;55.19;99596.25;5111301;28;20395;-60
2022/10/20 10:41:43;;;;;;;;;;;;;;;15.70;55.09;99585.00;5110228;28;20269;-60
2022/10/20 10:44:16;;;;;;;;;;;;;;;15.80;55.17;99595.72;5113147;28;19965;-60
2022/10/20 10:46:52;;;;;;;;;;;;;;;15.88;55.19;99589.75;5114974;28;19931;-61
2022/10/20 10:49:24;;;;;;;;;;;;;;;15.98;55.05;99595.19;5115382;28;20004;-61
2022/10/20 10:52:13;;;;;;;;;;;;;;;16.07;55.14;99586.47;5115530;28;19923;-61
2022/10/20 10:54:40;;;;;;;;;;;;;;;16.22;55.41;99587.00;5115027;28;20007;-60
2022/10/20 10:57:19;;;;;;;;;;;;;;;16.41;55.97;99585.47;5114820;28;19931;-62
2022/10/20 10:59:48;;;;;;;;;;;;;;;16.67;56.46;99574.41;5114585;28;19920;-63
2022/10/20 11:02:17;;;;;;;;;;;;;;;16.96;56.38;99570.22;5114890;28;19923;-60
2022/10/20 11:05:02;;;;;;;;;;;;;;;17.23;56.26;99580.28;5114823;28;19931;-61
2022/10/20 11:07:44;;;;;;;;;;;;;;;17.47;55.65;99586.22;5114620;27;20601;-60
2022/10/20 11:10:19;;;;;;;;;;;;;;;17.65;55.22;99578.41;5114692;28;19923;-63
2022/10/20 11:12:52;;;;;;;;;;;;;;;17.76;54.55;99583.59;5114579;28;19974;-61
2022/10/20 11:15:37;;;;;;;;;;;;;;;17.85;54.46;99587.25;5114468;28;19975;-60
2022/10/20 11:18:27;;;;;;;;;;;;;;;17.90;54.34;99576.22;5114172;28;19919;-66
2022/10/20 11:20:56;;;;;;;;;;;;;;;17.93;53.99;99575.91;5114408;28;20402;-60
2022/10/20 11:23:23;;;;;;;;;;;;;;;17.93;53.92;99576.75;5113207;28;19924;-62
2022/10/20 11:26:08;;;;;;;;;;;;;;;17.92;53.81;99577.75;5114703;28;20356;-60
2022/10/20 11:28:42;;;;;;;;;;;;;;;17.90;53.91;99574.38;5114202;28;19954;-60
2022/10/20 11:31:22;;;;;;;;;;;;;;;17.87;53.70;99582.63;5114637;28;19969;-61
2022/10/20 11:33:53;;;;;;;;;;;;;;;17.83;53.51;99575.94;5114515;28;19920;-62
2022/10/20 11:36:22;;;;;;;;;;;;;;;17.79;53.94;99580.66;5114208;28;19967;-63
2022/10/20 11:38:50;;;;;;;;;;;;;;;17.75;53.91;99562.47;5113933;28;19924;-61
2022/10/20 11:41:17;;;;;;;;;;;;;;;17.72;54.00;99568.91;5114026;28;19967;-60
2022/10/20 11:43:54;;;;;;;;;;;;;;;17.69;54.04;99574.50;5112791;28;20362;-62
2022/10/20 11:46:26;;;;;;;;;;;;;;;17.67;53.99;99571.97;5114228;28;19924;-61
2022/10/20 11:48:54;;;;;;;;;;;;;;;17.66;54.07;99564.13;5113897;28;19946;-61
2022/10/20 11:51:28;;;;;;;;;;;;;;;17.66;54.01;99569.44;5113901;28;19924;-60
2022/10/20 11:54:07;;;;;;;;;;;;;;;17.65;54.09;99578.41;5113621;28;20430;-62
2022/10/20 11:56:52;;;;;;;;;;;;;;;17.64;54.24;99577.56;5113772;28;19945;-60
2022/10/20 11:59:37;;;;;;;;;;;;;;;17.64;54.14;99582.06;5113403;28;19919;-61
2022/10/20 12:02:19;;;;;;;;;;;;;;;17.64;54.25;99579.41;5113669;28;19973;-61
2022/10/20 12:04:48;;;;;;;;;;;;;;;17.65;54.20;99579.25;5113594;28;20476;-62
2022/10/20 12:07:23;;;;;;;;;;;;;;;17.66;54.15;99577.44;5113502;28;19920;-61
2022/10/20 12:10:09;;;;;;;;;;;;;;;17.67;54.25;99581.78;5113194;28;19923;-60
2022/10/20 12:12:47;;;;;;;;;;;;;;;17.67;53.97;99579.09;5113604;28;19970;-59
2022/10/20 12:15:18;;;;;;;;;;;;;;;17.67;53.94;99571.13;5113535;28;19965;-61
2022/10/20 12:17:45;;;;;;;;;;;;;;;17.68;53.82;99571.00;5112239;28;19965;-62
2022/10/20 12:20:20;;;;;;;;;;;;;;;17.68;54.09;99562.19;5113026;28;19924;-61
2022/10/20 12:22:49;;;;;;;;;;;;;;;17.69;54.13;99558.53;5113291;28;19929;-62
2022/10/20 12:25:36;;;;;;;;;;;;;;;17.68;54.11;99559.53;5112011;28;19923;-59
2022/10/20 12:28:21;;;;;;;;;;;;;;;17.68;54.07;99557.69;5113093;28;19975;-61
2022/10/20 12:30:55;;;;;;;;;;;;;;;17.67;54.02;99550.69;5113016;28;19926;-62
2022/10/20 12:33:34;;;;;;;;;;;;;;;17.64;53.80;99556.28;5112026;28;19920;-61
2022/10/20 12:36:15;;;;;;;;;;;;;;;17.62;53.71;99552.06;5113059;28;19927;-61
2022/10/20 12:38:52;;;;;;;;;;;;;;;17.61;54.02;99558.38;5112891;28;19923;-62
2022/10/20 12:41:25;;;;;;;;;;;;;;;17.57;53.80;99552.50;5111822;28;19966;-60
2022/10/20 12:43:52;;;;;;;;;;;;;;;17.54;54.08;99548.28;5111730;28;20019;-62
2022/10/20 12:46:26;;;;;;;;;;;;;;;17.51;54.07;99540.59;5112832;28;19924;-63
2022/10/20 12:48:58;;;;;;;;;;;;;;;17.48;54.18;99543.50;5111508;28;19919;-61
2022/10/20 12:51:25;;;;;;;;;;;;;;;17.45;54.08;99530.47;5112694;28;19924;-63
2022/10/20 12:54:15;;;;;;;;;;;;;;;17.40;54.18;99530.91;5112652;28;19919;-61
2022/10/20 12:56:42;;;;;;;;;;;;;;;17.36;54.23;99526.84;5102016;28;19978;-62
2022/10/20 12:59:20;;;;;;;;;;;;;;;17.33;54.22;99545.72;5112309;28;20026;-60
2022/10/20 13:02:05;;;;;;;;;;;;;;;17.29;54.29;99541.66;5112543;28;19969;-60